Time;durP1;ratioP1;P1;durP2;ratioP2;P2;SDS_P1;SDS_P2;PMS_P1;PMS_P2;Temp;Humidity;BMP_temperature;BMP_pressure;BME280_temperature;BME280_humidity;BME280_pressure;Samples;Min_cycle;Max_cycle;Signal;HPM_P1;HPM_P2
2021/01/02 00:01:25;;;;;;;66.37;35.03;;;;;;;4.46;100.00;99875.06;5005652;28;20218;-30
2021/01/02 00:04:37;;;;;;;66.20;34.87;;;;;;;3.92;100.00;99869.34;5001023;28;20486;-30
2021/01/02 00:08:05;;;;;;;62.13;32.03;;;;;;;4.00;100.00;99867.72;4999550;28;20235;-30
2021/01/02 00:11:09;;;;;;;62.13;35.10;;;;;;;4.14;100.00;99879.84;4999514;28;20199;-30
2021/01/02 00:14:09;;;;;;;57.80;34.47;;;;;;;4.01;100.00;99882.25;4999068;28;20306;-30
2021/01/02 00:17:37;;;;;;;65.80;35.50;;;;;;;4.28;100.00;99882.56;4998564;28;20269;-30
2021/01/02 00:20:50;;;;;;;60.07;33.43;;;;;;;4.32;100.00;99888.56;4959842;28;20267;-30
2021/01/02 00:24:08;;;;;;;57.20;33.83;;;;;;;4.21;100.00;99887.56;4998833;28;20325;-30
2021/01/02 00:27:07;;;;;;;62.87;33.93;;;;;;;4.12;100.00;99883.25;4994071;28;20242;-30
2021/01/02 00:30:08;;;;;;;62.50;35.40;;;;;;;4.36;100.00;99891.19;5018025;28;20202;-31
2021/01/02 00:33:00;;;;;;;57.30;34.37;;;;;;;4.40;100.00;99887.78;5018096;28;20279;-30
2021/01/02 00:35:49;;;;;;;65.40;36.97;;;;;;;4.07;100.00;99893.41;5018808;28;20205;-30
2021/01/02 00:38:38;;;;;;;70.37;37.30;;;;;;;4.13;100.00;99890.06;5018104;28;20595;-30
2021/01/02 00:41:28;;;;;;;60.70;33.13;;;;;;;3.92;100.00;99893.25;5018156;28;20199;-30
2021/01/02 00:44:15;;;;;;;65.33;34.77;;;;;;;3.86;100.00;99892.31;5018626;28;20258;-30
2021/01/02 00:47:02;;;;;;;62.63;34.20;;;;;;;4.22;100.00;99895.28;5018354;28;20239;-30
2021/01/02 00:49:55;;;;;;;66.93;38.27;;;;;;;4.21;100.00;99901.25;5019244;28;20210;-30
2021/01/02 00:53:13;;;;;;;67.67;36.00;;;;;;;4.04;100.00;99895.06;5017886;28;20737;-30
2021/01/02 00:56:07;;;;;;;64.17;35.53;;;;;;;4.20;100.00;99891.84;5018742;28;20223;-30
2021/01/02 00:59:38;;;;;;;69.17;36.97;;;;;;;4.19;100.00;99894.41;5022605;28;20605;-30
2021/01/02 01:02:52;;;;;;;70.40;38.03;;;;;;;4.30;100.00;99896.22;5022004;28;20195;-30
2021/01/02 01:05:39;;;;;;;73.73;37.47;;;;;;;4.41;100.00;99893.75;5022086;28;20614;-30
2021/01/02 01:08:25;;;;;;;68.40;38.67;;;;;;;4.17;100.00;99891.84;5022168;28;20320;-30
2021/01/02 01:11:12;;;;;;;65.87;37.87;;;;;;;3.80;100.00;99891.38;5021564;28;20254;-30
2021/01/02 01:13:58;;;;;;;69.40;37.37;;;;;;;4.07;100.00;99887.44;5021958;28;20207;-30
2021/01/02 01:16:47;;;;;;;77.87;38.00;;;;;;;3.98;100.00;99893.34;5023380;28;20595;-30
2021/01/02 01:19:36;;;;;;;69.03;37.60;;;;;;;4.00;100.00;99890.75;5021524;28;20210;-30
2021/01/02 01:22:25;;;;;;;75.70;40.60;;;;;;;3.94;100.00;99896.69;5021745;28;20661;-30
2021/01/02 01:25:26;;;;;;;76.23;40.23;;;;;;;3.96;100.00;99900.13;5023130;28;20720;-30
2021/01/02 01:28:20;;;;;;;73.43;39.33;;;;;;;4.26;100.00;99902.16;5015940;28;20227;-30
2021/01/02 01:31:06;;;;;;;79.80;39.53;;;;;;;3.86;100.00;99908.50;5021646;28;20203;-30
2021/01/02 01:33:52;;;;;;;75.83;40.10;;;;;;;3.95;100.00;99907.78;5022326;28;20200;-30
2021/01/02 01:36:43;;;;;;;78.43;40.40;;;;;;;4.19;100.00;99914.88;5022186;28;20270;-32
2021/01/02 01:39:32;;;;;;;83.50;40.87;;;;;;;4.23;100.00;99911.50;5021550;28;20206;-30
2021/01/02 01:42:20;;;;;;;75.43;38.87;;;;;;;4.06;100.00;99914.72;5024073;28;20488;-30
2021/01/02 01:45:26;;;;;;;77.97;39.60;;;;;;;4.16;100.00;99913.16;5021564;28;20198;-30
2021/01/02 01:48:18;;;;;;;83.23;40.20;;;;;;;4.30;100.00;99916.72;5022363;28;20237;-30
2021/01/02 01:51:22;;;;;;;76.80;39.73;;;;;;;4.15;100.00;99912.28;5020902;28;20207;-30
2021/01/02 01:54:44;;;;;;;76.00;39.73;;;;;;;4.32;100.00;99912.47;5021243;28;20202;-30
2021/01/02 01:57:37;;;;;;;80.17;40.53;;;;;;;4.09;100.00;99921.59;5019071;28;20206;-30
2021/01/02 02:00:43;;;;;;;83.10;41.00;;;;;;;4.24;100.00;99923.47;5020977;28;20282;-30
2021/01/02 02:03:59;;;;;;;84.63;42.33;;;;;;;4.06;100.00;99917.28;5020772;28;20266;-30
2021/01/02 02:06:46;;;;;;;81.30;39.83;;;;;;;4.20;100.00;99919.16;5020751;28;20267;-30
2021/01/02 02:09:41;;;;;;;77.37;40.70;;;;;;;4.20;100.00;99914.88;5021430;28;20234;-30
2021/01/02 02:12:33;;;;;;;81.47;41.93;;;;;;;4.04;100.00;99918.09;5020798;28;20198;-30
2021/01/02 02:15:25;;;;;;;83.67;41.40;;;;;;;4.28;100.00;99912.41;5021356;28;20514;-30
2021/01/02 02:18:18;;;;;;;77.87;41.30;;;;;;;4.20;100.00;99911.50;5029847;28;20250;-30
2021/01/02 02:21:09;;;;;;;83.20;41.77;;;;;;;4.32;100.00;99911.63;5021575;28;20251;-30
2021/01/02 02:24:01;;;;;;;88.33;40.30;;;;;;;4.58;100.00;99914.44;5020865;28;20219;-30
2021/01/02 02:26:48;;;;;;;82.37;41.07;;;;;;;4.34;100.00;99918.47;5020997;28;20263;-30
2021/01/02 02:29:46;;;;;;;78.90;42.83;;;;;;;4.45;100.00;99921.13;5020574;28;20725;-30
2021/01/02 02:32:35;;;;;;;90.63;42.90;;;;;;;4.27;100.00;99916.69;5020261;28;20211;-30
2021/01/02 02:35:22;;;;;;;79.27;42.13;;;;;;;4.20;100.00;99919.16;5020958;28;20482;-30
2021/01/02 02:38:12;;;;;;;74.97;42.07;;;;;;;4.32;100.00;99917.59;5020621;28;20320;-30
2021/01/02 02:40:58;;;;;;;76.57;41.27;;;;;;;4.54;100.00;99913.56;5020453;28;20207;-30
2021/01/02 02:43:48;;;;;;;85.80;42.77;;;;;;;4.61;100.00;99911.88;5021876;28;20198;-30
2021/01/02 02:46:41;;;;;;;83.33;43.17;;;;;;;4.25;100.00;99917.50;5020789;28;20204;-30
2021/01/02 02:49:31;;;;;;;87.83;43.47;;;;;;;4.50;100.00;99922.91;5020024;28;20517;-29
2021/01/02 02:52:27;;;;;;;81.17;41.90;;;;;;;4.46;100.00;99915.16;5020046;28;20487;-30
2021/01/02 02:55:14;;;;;;;79.73;41.20;;;;;;;4.32;100.00;99916.72;5021401;28;20598;-30
2021/01/02 02:58:01;;;;;;;79.20;41.73;;;;;;;4.18;100.00;99914.03;5023117;28;20231;-30
2021/01/02 03:00:47;;;;;;;87.07;43.70;;;;;;;4.41;100.00;99920.22;5019981;28;20608;-30
2021/01/02 03:03:33;;;;;;;83.97;41.40;;;;;;;4.44;100.00;99912.59;5019993;28;20261;-32
2021/01/02 03:06:21;;;;;;;83.07;44.10;;;;;;;4.01;100.00;99920.63;5020123;28;20263;-30
2021/01/02 03:09:09;;;;;;;87.10;44.87;;;;;;;4.35;100.00;99922.75;5019939;28;20285;-30
2021/01/02 03:11:55;;;;;;;84.53;43.97;;;;;;;4.26;100.00;99925.19;5020949;28;20197;-29
2021/01/02 03:14:41;;;;;;;86.17;43.40;;;;;;;4.33;100.00;99921.88;5021394;28;20202;-30
2021/01/02 03:17:28;;;;;;;87.60;43.70;;;;;;;4.28;100.00;99920.09;5019269;28;20255;-30
2021/01/02 03:20:16;;;;;;;83.67;42.90;;;;;;;4.29;100.00;99929.50;5019857;28;20261;-30
2021/01/02 03:23:03;;;;;;;90.80;43.13;;;;;;;4.54;100.00;99925.50;5020441;28;20198;-30
2021/01/02 03:25:49;;;;;;;86.40;44.50;;;;;;;4.04;100.00;99936.03;5021310;28;20245;-31
2021/01/02 03:28:35;;;;;;;85.93;43.50;;;;;;;4.41;100.00;99935.59;5019930;28;20240;-30
2021/01/02 03:31:21;;;;;;;83.20;43.93;;;;;;;4.36;100.00;99934.72;5019914;28;20342;-29
2021/01/02 03:34:08;;;;;;;91.63;43.43;;;;;;;4.32;100.00;99932.94;5019423;28;20195;-30
2021/01/02 03:36:54;;;;;;;94.00;44.93;;;;;;;4.36;100.00;99933.84;5020880;28;20480;-30
2021/01/02 03:39:41;;;;;;;84.43;42.77;;;;;;;4.19;100.00;99936.22;5019165;28;20207;-30
2021/01/02 03:42:27;;;;;;;87.23;44.57;;;;;;;4.68;100.00;99935.03;5019393;28;20270;-30
2021/01/02 03:45:14;;;;;;;85.90;44.83;;;;;;;4.32;100.00;99932.09;5019425;28;20199;-30
2021/01/02 03:48:01;;;;;;;87.10;44.80;;;;;;;4.47;100.00;99934.81;5020309;28;20266;-30
2021/01/02 03:50:47;;;;;;;89.90;45.77;;;;;;;4.29;100.00;99938.03;5019029;28;20488;-31
2021/01/02 03:53:35;;;;;;;86.67;44.80;;;;;;;4.29;100.00;99937.16;5018754;28;20219;-30
2021/01/02 03:56:21;;;;;;;93.43;44.90;;;;;;;4.25;100.00;99931.16;5019582;28;20206;-31
2021/01/02 03:59:07;;;;;;;99.47;48.87;;;;;;;4.44;100.00;99935.63;5019282;28;20341;-30
2021/01/02 04:01:54;;;;;;;99.97;47.13;;;;;;;4.32;100.00;99937.22;5022028;28;20249;-30
2021/01/02 04:04:41;;;;;;;90.27;43.70;;;;;;;4.55;100.00;99932.34;5020041;28;20496;-30
2021/01/02 04:07:26;;;;;;;101.27;45.43;;;;;;;4.27;100.00;99924.34;5020488;28;20199;-30
2021/01/02 04:10:13;;;;;;;107.33;48.70;;;;;;;4.24;100.00;99931.13;5019876;28;20208;-30
2021/01/02 04:13:00;;;;;;;103.43;46.47;;;;;;;4.41;100.00;99929.63;5019405;28;20300;-30
2021/01/02 04:15:46;;;;;;;100.53;45.80;;;;;;;4.27;100.00;99928.63;5019991;28;20212;-30
2021/01/02 04:18:32;;;;;;;105.47;48.63;;;;;;;4.43;100.00;99927.94;5018863;28;20634;-30
2021/01/02 04:21:19;;;;;;;119.57;48.70;;;;;;;4.14;100.00;99920.81;5018324;28;20277;-31
2021/01/02 04:24:06;;;;;;;94.73;44.20;;;;;;;4.64;100.00;99920.47;5018685;28;20209;-30
2021/01/02 04:26:58;;;;;;;104.37;47.97;;;;;;;4.64;100.00;99923.03;5019683;28;20338;-30
2021/01/02 04:29:45;;;;;;;100.17;45.63;;;;;;;4.57;100.00;99925.53;5019270;28;20230;-30
2021/01/02 04:32:30;;;;;;;99.57;45.63;;;;;;;4.39;100.00;99924.50;5018200;28;20262;-30
2021/01/02 04:35:17;;;;;;;96.67;46.73;;;;;;;4.38;100.00;99925.34;5018275;28;20206;-30
2021/01/02 04:38:04;;;;;;;100.80;47.00;;;;;;;4.55;100.00;99924.66;5018350;28;20287;-30
2021/01/02 04:40:55;;;;;;;99.40;46.60;;;;;;;4.70;100.00;99919.66;5018616;28;20208;-30
2021/01/02 04:43:45;;;;;;;97.80;45.37;;;;;;;4.74;100.00;99919.72;5018542;28;20202;-30
2021/01/02 04:46:32;;;;;;;98.97;48.13;;;;;;;4.62;100.00;99918.72;5018253;28;20207;-30
2021/01/02 04:49:18;;;;;;;100.83;47.77;;;;;;;4.18;100.00;99919.16;5017957;28;20291;-30
2021/01/02 04:52:05;;;;;;;98.20;45.73;;;;;;;4.29;100.00;99926.94;5018349;28;20283;-30
2021/01/02 04:54:52;;;;;;;97.83;46.57;;;;;;;4.27;100.00;99928.63;5017956;28;20208;-30
2021/01/02 04:57:42;;;;;;;101.80;45.97;;;;;;;4.14;100.00;99927.63;5018263;28;20545;-30
2021/01/02 05:00:29;;;;;;;93.60;43.13;;;;;;;4.27;100.00;99934.59;5018284;28;20257;-30
2021/01/02 05:03:15;;;;;;;96.30;44.10;;;;;;;4.17;100.00;99937.03;5019278;28;20198;-30
2021/01/02 05:06:01;;;;;;;108.30;44.93;;;;;;;4.13;100.00;99933.59;5018021;28;20206;-30
2021/01/02 05:08:49;;;;;;;105.90;46.80;;;;;;;4.19;100.00;99927.69;5017775;28;20226;-30
2021/01/02 05:11:35;;;;;;;108.23;47.63;;;;;;;4.21;100.00;99934.50;5020326;28;20263;-30
2021/01/02 05:14:21;;;;;;;111.80;47.93;;;;;;;4.41;100.00;99940.72;5019682;28;20539;-30
2021/01/02 05:17:25;;;;;;;102.57;44.97;;;;;;;4.56;100.00;99936.63;5017972;28;20261;-30
2021/01/02 05:20:13;;;;;;;105.90;47.43;;;;;;;4.07;100.00;99943.75;5018296;28;20203;-32
2021/01/02 05:23:07;;;;;;;100.10;45.70;;;;;;;4.08;100.00;99941.19;5017759;28;20201;-30
2021/01/02 05:26:08;;;;;;;104.33;44.57;;;;;;;4.14;100.00;99953.22;5018311;28;20320;-30
2021/01/02 05:29:08;;;;;;;104.57;44.30;;;;;;;4.18;100.00;99947.31;5017942;28;20234;-30
2021/01/02 05:31:56;;;;;;;102.47;45.40;;;;;;;4.22;100.00;99954.16;5017709;28;20238;-30
2021/01/02 05:34:44;;;;;;;108.70;46.40;;;;;;;4.34;100.00;99949.19;5017474;28;20207;-30
2021/01/02 05:37:31;;;;;;;106.10;45.47;;;;;;;3.98;100.00;99959.00;5017804;28;20202;-30
2021/01/02 05:40:34;;;;;;;98.33;44.47;;;;;;;4.06;100.00;99965.91;5017806;28;20205;-30
2021/01/02 05:43:22;;;;;;;98.13;44.20;;;;;;;4.25;100.00;99961.00;5019990;28;20202;-30
2021/01/02 05:46:09;;;;;;;103.43;45.23;;;;;;;4.20;100.00;99971.19;5021350;28;20225;-30
2021/01/02 05:48:55;;;;;;;101.90;45.70;;;;;;;4.23;100.00;99976.34;5021532;28;20234;-31
2021/01/02 05:51:48;;;;;;;103.83;47.10;;;;;;;4.18;100.00;99975.47;5026612;28;20198;-30
2021/01/02 05:54:35;;;;;;;97.40;44.47;;;;;;;4.17;100.00;99972.88;5021355;28;20198;-30
2021/01/02 05:57:25;;;;;;;98.13;45.80;;;;;;;4.49;100.00;99972.41;5020889;28;20488;-30
2021/01/02 06:00:17;;;;;;;94.93;44.77;;;;;;;4.56;100.00;99975.91;5021263;28;20365;-31
2021/01/02 06:03:03;;;;;;;105.03;47.30;;;;;;;4.04;100.00;99975.25;5021509;28;20198;-31
2021/01/02 06:05:57;;;;;;;101.97;43.87;;;;;;;4.33;100.00;99982.47;5021474;28;20231;-30
2021/01/02 06:08:47;;;;;;;91.93;44.77;;;;;;;4.06;100.00;99980.41;5021027;28;20227;-30
2021/01/02 06:11:34;;;;;;;95.90;43.60;;;;;;;4.20;100.00;99983.16;5021352;28;20230;-30
2021/01/02 06:14:20;;;;;;;93.83;45.10;;;;;;;4.20;100.00;99983.16;5006276;28;20202;-31
2021/01/02 06:17:07;;;;;;;98.97;44.27;;;;;;;4.52;100.00;99992.06;5021124;28;20262;-30
2021/01/02 06:19:54;;;;;;;97.07;44.23;;;;;;;4.36;100.00;99991.03;5023482;28;20480;-30
2021/01/02 06:22:46;;;;;;;96.17;44.33;;;;;;;4.19;100.00;99994.25;5020841;28;20211;-31
2021/01/02 06:25:33;;;;;;;94.80;43.33;;;;;;;4.12;100.00;99991.59;5020494;28;20327;-30
2021/01/02 06:28:21;;;;;;;88.07;43.13;;;;;;;4.11;100.00;99989.00;5020997;28;20218;-30
2021/01/02 06:31:09;;;;;;;91.57;43.73;;;;;;;4.35;100.00;99993.56;5020442;28;20264;-30
2021/01/02 06:34:05;;;;;;;92.80;43.90;;;;;;;4.17;100.00;99991.66;5022369;28;20286;-30
2021/01/02 06:36:55;;;;;;;92.17;42.87;;;;;;;4.37;100.00;99997.03;5021255;28;20198;-30
2021/01/02 06:39:41;;;;;;;92.73;43.07;;;;;;;4.44;100.00;99991.97;5020700;28;20207;-30
2021/01/02 06:42:32;;;;;;;92.93;42.43;;;;;;;4.17;100.00;100004.44;5020712;28;20605;-31
2021/01/02 06:45:43;;;;;;;97.63;42.47;;;;;;;4.24;100.00;100001.13;5020524;28;20222;-30
2021/01/02 06:48:41;;;;;;;86.50;41.57;;;;;;;4.01;100.00;99998.25;5021961;28;20227;-30
2021/01/02 06:51:32;;;;;;;92.57;42.93;;;;;;;4.19;100.00;99994.25;5021275;28;20311;-30
2021/01/02 06:54:23;;;;;;;87.87;42.10;;;;;;;4.10;100.00;99998.38;5019068;28;20298;-30
2021/01/02 06:57:09;;;;;;;91.23;42.03;;;;;;;4.14;100.00;99995.03;5020122;28;20269;-30
2021/01/02 07:00:19;;;;;;;80.83;40.17;;;;;;;3.99;100.00;99999.97;5019981;28;20257;-30
2021/01/02 07:03:09;;;;;;;95.53;43.47;;;;;;;3.97;100.00;99999.06;5020058;28;20215;-30
2021/01/02 07:05:56;;;;;;;84.47;39.50;;;;;;;4.16;100.00;100002.72;5020634;28;20610;-30
2021/01/02 07:08:45;;;;;;;87.37;40.07;;;;;;;4.05;100.00;100001.72;5020062;28;20227;-31
2021/01/02 07:11:37;;;;;;;86.40;40.73;;;;;;;4.22;100.00;100000.22;5019845;28;20202;-30
2021/01/02 07:14:26;;;;;;;86.67;42.13;;;;;;;3.96;100.00;100001.63;5023939;28;20223;-31
2021/01/02 07:17:13;;;;;;;95.70;44.50;;;;;;;3.84;100.00;100007.41;5021878;28;20485;-30
2021/01/02 07:20:05;;;;;;;88.20;41.30;;;;;;;4.10;100.00;100003.50;5019568;28;20612;-30
2021/01/02 07:22:59;;;;;;;81.47;40.03;;;;;;;3.88;100.00;100000.63;5020491;28;20458;-30
2021/01/02 07:25:45;;;;;;;77.83;38.07;;;;;;;4.12;100.00;100006.09;5020531;28;20237;-31
2021/01/02 07:28:31;;;;;;;80.80;39.10;;;;;;;4.18;100.00;100006.19;5020833;28;20749;-31
2021/01/02 07:31:18;;;;;;;83.03;41.33;;;;;;;3.94;100.00;100011.81;5019360;28;20206;-30
2021/01/02 07:34:05;;;;;;;79.33;38.87;;;;;;;3.97;100.00;100000.78;5019373;28;20207;-40
2021/01/02 07:36:52;;;;;;;79.63;39.00;;;;;;;3.75;100.00;100005.59;5019828;28;20234;-31
2021/01/02 07:39:39;;;;;;;72.13;37.47;;;;;;;3.79;100.00;100004.81;5018954;28;20237;-31
2021/01/02 07:42:27;;;;;;;73.70;35.73;;;;;;;3.80;100.00;100016.72;5019123;28;20539;-31
2021/01/02 07:45:15;;;;;;;66.93;34.60;;;;;;;3.70;100.00;100014.88;5019220;28;20666;-30
2021/01/02 07:48:02;;;;;;;69.83;37.00;;;;;;;4.04;100.00;100013.66;5019078;28;20257;-31
2021/01/02 07:50:49;;;;;;;66.93;35.63;;;;;;;4.30;100.00;100020.81;5019257;28;20194;-31
2021/01/02 07:53:35;;;;;;;73.47;36.87;;;;;;;4.15;100.00;100018.94;5019199;28;20289;-31
2021/01/02 07:56:35;;;;;;;69.30;34.33;;;;;;;3.98;100.00;100023.81;5018562;28;20214;-31
2021/01/02 07:59:23;;;;;;;73.80;35.57;;;;;;;3.93;100.00;100033.13;5019466;28;20260;-30
2021/01/02 08:02:10;;;;;;;64.27;35.03;;;;;;;4.08;100.00;100029.91;5018976;28;20304;-31
2021/01/02 08:04:57;;;;;;;70.53;34.27;;;;;;;4.00;100.00;100034.91;5018660;28;20708;-31
2021/01/02 08:07:53;;;;;;;68.30;34.97;;;;;;;3.88;100.00;100032.19;5018961;28;20252;-31
2021/01/02 08:10:42;;;;;;;64.83;32.07;;;;;;;3.78;100.00;100035.47;5018755;28;20211;-30
2021/01/02 08:13:29;;;;;;;64.53;34.67;;;;;;;3.87;100.00;100042.41;5018762;28;20202;-30
2021/01/02 08:16:15;;;;;;;65.57;34.17;;;;;;;3.74;100.00;100043.94;5018937;28;20202;-30
2021/01/02 08:19:05;;;;;;;68.10;36.03;;;;;;;3.82;100.00;100047.44;5018536;28;20203;-30
2021/01/02 08:21:51;;;;;;;65.73;35.40;;;;;;;3.78;100.00;100050.81;5018556;28;20199;-30
2021/01/02 08:24:41;;;;;;;63.50;33.60;;;;;;;3.78;100.00;100044.00;5019324;28;20600;-31
2021/01/02 08:27:29;;;;;;;61.93;33.63;;;;;;;3.85;100.00;100047.50;5019969;28;20251;-31
2021/01/02 08:30:19;;;;;;;61.83;34.40;;;;;;;4.03;100.00;100058.00;5018714;28;20234;-30
2021/01/02 08:33:08;;;;;;;62.87;34.70;;;;;;;3.76;100.00;100058.47;5018486;28;20294;-30
2021/01/02 08:35:58;;;;;;;61.93;35.37;;;;;;;3.73;100.00;100060.97;5018847;28;20617;-31
2021/01/02 08:38:45;;;;;;;62.20;35.63;;;;;;;3.74;100.00;100060.13;5019413;28;20210;-31
2021/01/02 08:41:32;;;;;;;56.87;33.37;;;;;;;3.70;100.00;100058.38;5018405;28;20198;-30
2021/01/02 08:44:23;;;;;;;61.73;35.53;;;;;;;3.70;100.00;100058.38;5018386;28;20262;-32
2021/01/02 08:47:09;;;;;;;56.20;32.33;;;;;;;3.70;100.00;100058.38;5018763;28;20203;-30
2021/01/02 08:49:55;;;;;;;53.80;28.90;;;;;;;3.68;100.00;100067.72;5018851;28;20233;-30
2021/01/02 08:52:43;;;;;;;55.37;32.20;;;;;;;3.97;100.00;100075.84;5018821;28;20201;-31
2021/01/02 08:55:31;;;;;;;57.63;31.33;;;;;;;3.83;100.00;100067.06;5019407;28;20235;-30
2021/01/02 08:58:31;;;;;;;56.60;31.23;;;;;;;4.21;100.00;100072.75;5019893;28;20222;-31
2021/01/02 09:01:17;;;;;;;59.50;32.97;;;;;;;4.13;100.00;100072.66;5025044;28;20204;-31
2021/01/02 09:04:12;;;;;;;59.13;32.73;;;;;;;4.36;100.00;100075.53;5038960;28;20252;-30
2021/01/02 09:07:02;;;;;;;58.00;32.60;;;;;;;4.15;100.00;100080.34;5038704;28;20505;-31
2021/01/02 09:09:47;;;;;;;55.37;28.53;;;;;;;3.80;100.00;100078.13;5038671;28;20253;-30
2021/01/02 09:12:34;;;;;;;59.07;31.60;;;;;;;4.41;100.00;100079.00;5038856;28;20202;-31
2021/01/02 09:15:24;;;;;;;49.77;30.27;;;;;;;4.32;100.00;100086.56;5038822;28;20200;-30
2021/01/02 09:18:11;;;;;;;53.03;30.73;;;;;;;4.24;100.00;100087.28;5041518;28;20204;-31
2021/01/02 09:20:58;;;;;;;58.23;31.97;;;;;;;3.98;100.00;100085.25;5042044;28;20203;-30
2021/01/02 09:23:46;;;;;;;59.73;32.80;;;;;;;4.22;100.00;100089.81;5042219;28;20524;-31
2021/01/02 09:26:36;;;;;;;52.07;31.07;;;;;;;4.12;100.00;100088.00;5041136;28;20305;-31
2021/01/02 09:29:22;;;;;;;50.43;30.03;;;;;;;4.08;100.00;100086.22;5041541;28;20282;-30
2021/01/02 09:32:12;;;;;;;52.37;30.23;;;;;;;4.53;100.00;100092.81;5041451;28;20291;-31
2021/01/02 09:34:57;;;;;;;52.90;30.90;;;;;;;4.23;100.00;100093.25;5041383;28;20199;-31
2021/01/02 09:37:45;;;;;;;50.47;30.60;;;;;;;4.29;100.00;100103.56;5041789;28;20275;-31
2021/01/02 09:40:33;;;;;;;51.30;31.27;;;;;;;4.44;100.00;100103.78;5040965;28;20341;-31
2021/01/02 09:43:19;;;;;;;51.10;29.03;;;;;;;4.61;100.00;100102.28;5040947;28;20205;-31
2021/01/02 09:46:06;;;;;;;47.90;28.80;;;;;;;4.91;100.00;100109.50;5040865;28;20256;-31
2021/01/02 09:48:54;;;;;;;47.27;29.13;;;;;;;4.49;100.00;100110.69;5041144;28;20314;-31
2021/01/02 09:51:40;;;;;;;47.07;29.47;;;;;;;4.84;100.00;100110.25;5041057;28;20201;-31
2021/01/02 09:54:29;;;;;;;48.30;29.77;;;;;;;4.54;100.00;100107.34;5042119;28;20204;-31
2021/01/02 09:57:16;;;;;;;42.50;27.30;;;;;;;4.46;100.00;100110.66;5029610;28;20287;-31
2021/01/02 10:00:06;;;;;;;47.40;28.33;;;;;;;4.66;100.00;100112.59;5022680;28;20262;-30
2021/01/02 10:02:54;;;;;;;42.47;26.67;;;;;;;4.75;100.00;100115.28;5024046;28;20206;-30
2021/01/02 10:05:59;;;;;;;45.80;28.10;;;;;;;4.64;100.00;100116.84;5041674;28;20607;-32
2021/01/02 10:08:45;;;;;;;46.50;28.43;;;;;;;4.74;100.00;100121.25;5041815;28;20269;-31
2021/01/02 10:11:31;;;;;;;43.63;28.63;;;;;;;4.96;100.00;100115.56;5041213;28;20236;-31
2021/01/02 10:14:18;;;;;;;43.40;28.27;;;;;;;4.93;100.00;100122.34;5040595;28;20208;-31
2021/01/02 10:17:05;;;;;;;42.70;27.33;;;;;;;4.84;100.00;100112.81;5041040;28;20294;-31
2021/01/02 10:19:51;;;;;;;45.87;26.37;;;;;;;5.13;100.00;100119.16;5040458;28;20250;-31
2021/01/02 10:22:37;;;;;;;42.20;27.03;;;;;;;5.53;100.00;100112.72;5040345;28;20194;-31
2021/01/02 10:25:25;;;;;;;39.57;25.87;;;;;;;5.30;100.00;100114.19;5041788;28;20260;-31
2021/01/02 10:28:11;;;;;;;42.67;27.20;;;;;;;5.69;100.00;100113.69;5059811;28;20204;-31
2021/01/02 10:31:00;;;;;;;43.37;26.27;;;;;;;4.95;100.00;100108.69;5060523;28;20331;-30
2021/01/02 10:33:48;;;;;;;42.60;25.97;;;;;;;5.01;100.00;100108.75;5061265;28;20197;-30
2021/01/02 10:36:34;;;;;;;44.80;27.83;;;;;;;5.30;100.00;100101.38;5059997;28;20255;-32
2021/01/02 10:39:20;;;;;;;44.77;27.67;;;;;;;5.34;100.00;100107.41;5059702;28;20204;-30
2021/01/02 10:42:07;;;;;;;40.40;25.87;;;;;;;5.27;100.00;100108.16;5059617;28;20284;-30
2021/01/02 10:44:53;;;;;;;44.73;27.63;;;;;;;5.56;100.00;100111.88;5059720;28;20251;-30
2021/01/02 10:47:40;;;;;;;43.20;26.80;;;;;;;5.40;100.00;100110.00;5059562;28;20271;-30
2021/01/02 10:50:27;;;;;;;40.93;26.33;;;;;;;5.55;100.00;100107.59;5059489;28;20219;-30
2021/01/02 10:53:12;;;;;;;46.20;27.27;;;;;;;5.40;100.00;100108.28;5059592;28;20597;-30
2021/01/02 10:55:58;;;;;;;43.53;26.30;;;;;;;5.57;100.00;100097.34;5059028;28;20605;-30
2021/01/02 10:58:45;;;;;;;43.90;26.77;;;;;;;5.66;100.00;100097.41;5059604;28;20272;-29
2021/01/02 11:01:43;;;;;;;43.07;27.07;;;;;;;4.94;100.00;100103.56;5059227;28;20244;-30
2021/01/02 11:04:38;;;;;;;43.47;26.43;;;;;;;5.31;100.00;100094.53;5059219;28;20485;-30
2021/01/02 11:07:24;;;;;;;41.63;26.27;;;;;;;5.40;100.00;100099.75;5059703;28;20247;-33
2021/01/02 11:10:12;;;;;;;44.33;27.13;;;;;;;5.30;100.00;100098.81;5058845;28;20281;-30
2021/01/02 11:13:09;;;;;;;40.37;26.57;;;;;;;5.39;100.00;100098.06;5058504;28;20266;-30
2021/01/02 11:15:58;;;;;;;40.17;25.53;;;;;;;5.52;100.00;100098.16;5059001;28;20262;-30
2021/01/02 11:18:44;;;;;;;40.60;27.00;;;;;;;5.56;100.00;100091.38;5059567;28;20208;-30
2021/01/02 11:21:31;;;;;;;43.57;26.73;;;;;;;5.53;100.00;100087.06;5059146;28;20700;-30
2021/01/02 11:24:21;;;;;;;42.30;26.63;;;;;;;5.80;100.00;100085.53;5058686;28;20195;-30
2021/01/02 11:27:07;;;;;;;40.97;27.17;;;;;;;5.74;100.00;100080.38;5058125;28;20241;-30
2021/01/02 11:29:54;;;;;;;40.00;26.83;;;;;;;5.88;100.00;100078.78;5059477;28;20370;-30
2021/01/02 11:32:41;;;;;;;43.50;26.77;;;;;;;5.58;100.00;100074.28;5058565;28;20282;-30
2021/01/02 11:35:27;;;;;;;40.47;25.93;;;;;;;5.47;100.00;100073.31;5058660;28;20211;-30
2021/01/02 11:38:15;;;;;;;43.03;26.10;;;;;;;5.95;100.00;100080.56;5059363;28;20349;-30
2021/01/02 11:41:01;;;;;;;43.30;28.13;;;;;;;5.68;100.00;100065.78;5061582;28;20243;-30
2021/01/02 11:43:47;;;;;;;42.40;26.40;;;;;;;6.08;100.00;100066.09;5061329;28;20207;-30
2021/01/02 11:46:36;;;;;;;44.20;27.43;;;;;;;5.93;100.00;100072.00;5059960;28;20200;-32
2021/01/02 11:49:25;;;;;;;43.50;27.13;;;;;;;6.02;100.00;100066.06;5058835;28;20285;-30
2021/01/02 11:52:11;;;;;;;48.40;27.63;;;;;;;4.98;100.00;100065.16;5059220;28;20208;-30
2021/01/02 11:54:58;;;;;;;47.13;29.93;;;;;;;5.17;100.00;100061.09;5059916;28;20839;-30
2021/01/02 11:57:44;;;;;;;46.13;28.43;;;;;;;5.12;100.00;100058.47;5058874;28;20239;-30
2021/01/02 12:00:31;;;;;;;44.73;28.93;;;;;;;5.34;100.00;100056.09;5059462;28;20192;-30
2021/01/02 12:03:17;;;;;;;48.40;27.63;;;;;;;5.96;100.00;100055.78;5059520;28;20259;-30
2021/01/02 12:06:04;;;;;;;44.83;28.43;;;;;;;5.84;100.00;100057.34;5058481;28;20247;-30
2021/01/02 12:08:49;;;;;;;47.53;28.47;;;;;;;5.54;100.00;100046.88;5059070;28;20200;-30
2021/01/02 12:11:40;;;;;;;41.30;26.50;;;;;;;5.88;100.00;100059.13;5059133;28;20275;-30
2021/01/02 12:14:28;;;;;;;43.80;26.60;;;;;;;5.99;100.00;100063.50;5058189;28;20224;-30
2021/01/02 12:17:14;;;;;;;40.23;26.50;;;;;;;5.14;100.00;100051.66;5057793;28;20749;-31
2021/01/02 12:20:03;;;;;;;44.47;27.50;;;;;;;4.85;100.00;100048.78;5057303;28;20603;-30
2021/01/02 12:22:49;;;;;;;38.60;25.67;;;;;;;4.94;100.00;100047.16;5057501;28;20269;-31
2021/01/02 12:25:36;;;;;;;40.97;24.63;;;;;;;4.76;100.00;100046.13;5057842;28;20239;-30
2021/01/02 12:28:23;;;;;;;37.77;25.10;;;;;;;5.11;100.00;100046.50;5057804;28;20585;-30
2021/01/02 12:31:14;;;;;;;45.00;28.03;;;;;;;5.85;100.00;100050.50;5057693;28;20184;-30
2021/01/02 12:34:07;;;;;;;42.87;26.43;;;;;;;5.84;100.00;100046.22;5057717;28;20600;-30
2021/01/02 12:36:54;;;;;;;44.73;27.50;;;;;;;5.86;100.00;100044.53;5057979;28;20209;-31
2021/01/02 12:39:42;;;;;;;45.57;28.03;;;;;;;5.84;100.00;100051.34;5059337;28;20681;-30
2021/01/02 12:42:28;;;;;;;42.27;26.17;;;;;;;5.51;100.00;100040.00;5058708;28;20366;-38
2021/01/02 12:45:16;;;;;;;44.20;27.03;;;;;;;5.68;100.00;100045.25;5060121;28;20487;-31
2021/01/02 12:48:02;;;;;;;39.80;25.63;;;;;;;6.01;100.00;100039.53;5059837;28;20608;-31
2021/01/02 12:50:52;;;;;;;43.13;25.90;;;;;;;6.22;100.00;100037.06;5056915;28;20239;-31
2021/01/02 12:53:39;;;;;;;41.77;26.67;;;;;;;5.60;100.00;100034.06;5056823;28;20192;-31
2021/01/02 12:56:26;;;;;;;43.87;28.87;;;;;;;5.70;100.00;100041.00;5057283;28;20200;-31